Portada
METAR-TAF:

METAR-TAF

Aeroports :

Garoua, Camerun

latitud: 09-20N, longitud: 013-23E, altitud: 242 m

Observació

L'informe es va fer fa 23 hores i 56 minuts, a les 20:00 UTC
Vent 3 kt del Sud/Sud-Est, variant entre Est i Sud/Sud-Oest
Temperatura 27°C
Humitat 79%
Pressió 1013 hPa
Visibilitat 10 km o més
Cel ennuvolat a una alçada de 1600 ft
Escasses núvols a una alçada de 2000 ft, Cumulonimbus.

METAR: FKKR 172000Z 15003KT 100V200 9999 BKN016 FEW020CB 27/23 Q1013 BECMG TS

Hora: 20:56 (19:56 UTC)

Pronòstic

L'informe es va fer fa 10 hores i 56 minuts, a les 09:00 UTC
Pronòstic vàlid del 18 a les 09 UTC al 18 a les 18 UTC
Vent 7 kt del Oest
Visibilitat 10 km o més
Cel ennuvolat a una alçada de 1300 ft
Escasses núvols a una alçada de 2000 ft, Cumulonimbus.
Temporalment
l' 18 a les 10 UTC al 18 a les 14 UTC
Visibilitat: 3000 m
tempesta, pluja,

TAF: FKKR 180900Z 1809/1818 28007KT 9999 BKN013 FEW020CB TEMPO 1810/1814 3000 TSRA

Observacions i pronòstics meteorològics de més de 4000 aeroports (METAR i TAF).

Les estacions disponibles són els punts grocs i vermells al mapa.

Posi el ratolí al punt desitjat per veure el nom de l'estació.

Feu clic per veure les observacions i els pronòstics meteorològics.

Per canviar el mapa: feu clic els botons verds amb una creu de color negre per apropar; al botó verd amb un guió per allunyar la imatge; o en les fletxes verdes per a mapes adjacents.


METAR-TAF: